Terminal Aerodrome Forecast
Issued by NWS San Angelo, TX

Home | Current Version | Previous Version | Text Only | Print | Product List | Glossary On
Versions: 1 2 3 4 5 6 7 8 9 10 11 12 13 14 15 16 17 18
000
FTUS44 KSJT 041800 AAA
TAFSJT
TAF AMD
KSJT 041820Z 0418/0518 16013G22KT P6SM VCTS BKN035CB
     FM042300 14017G28KT P6SM BKN050
     FM050200 14015G22KT P6SM OVC015=

USA.gov is the U.S. government's official web portal to all federal, state and local government web resources and services.